Active alerts

Gallatin County, MT
  Details for Gallatin County, MT Winter Storm Warning
Gallatin County, MT
  Details for Gallatin County, MT Hydrologic Outlook

Thunder radar more information blitzortung!


Rain radar more information rain snow radar



Nearby METAR Reports

   
KNUQ - Mountain View, CA
Updated: Oct 1 2020 6:55 am
NOT Current
Smoke, Overcast  
Smoke, Overcast  
   Wind: Calm
Wind: Calm
Temperature: 64.4°F
Dew Point: 53.6°F
Humidity: 68%
Barometer: 29.98 inHg
Clouds: Overcast
Visibility: 5 mi
Cloud details: Partly Cloudy 3800 ft,
Overcast 4600 ft
KNUQ 011355Z 00000KT 5SM FU SCT038 OVC046 18/12 A2998 RMK AO2
KSFO - San Francisco, CA
Updated: Oct 1 2020 2:56 pm
Overcast  
Overcast  
   Wind: East 3.5 mph
Wind: East 3.5 mph
Temperature: 78.8°F
Dew Point: 66.2°F
Humidity: 65%
Barometer: 29.93 inHg
Clouds: Overcast
Visibility: 7 mi
Cloud details: Overcast 3500 ft
KSFO 012156Z 09003KT 7SM OVC035 26/19 A2993 RMK AO2 SLP134 T02610194
KSJC - San Jose, CA
Updated: Oct 1 2020 2:53 pm
Smoke, Haze, Overcast  
Smoke, Haze, Overcast  
   Wind: North 8.1 mph
Wind: North 8.1 mph
Temperature: 93.2°F
Dew Point: 44.6°F
Humidity: 19%
Barometer: 29.93 inHg
Clouds: Overcast
Visibility: 6 mi
Cloud details: Few Clouds 100 ft,
Mostly Cloudy 2700 ft,
Overcast 3500 ft
KSJC 012153Z 35007KT 6SM FU HZ FEW001 BKN027 OVC035 34/07 A2993 RMK AO2 SLP134 FU FEW001 FU BKN027 FU OVC035 T03390072
KOAK - Oakland, CA
Updated: Oct 1 2020 2:53 pm
Smoke, Haze, Overcast  
Smoke, Haze, Overcast  
   Wind: WSW 3.5 mph
Wind: WSW 3.5 mph
Temperature: 86°F
Dew Point: 48.2°F
Humidity: 27%
Barometer: 29.93 inHg
Clouds: Overcast
Visibility: 5 mi
Cloud details: Partly Cloudy 2000 ft,
Overcast 2900 ft
KOAK 012153Z 24003KT 5SM FU HZ SCT020 OVC029 30/09 A2993 RMK AO2 SLP137 FU SCT020 FU OVC029 T03000089
KMRY - Monterey, CA
Updated: Oct 1 2020 2:54 pm
Haze, Mostly Cloudy  
Haze, Mostly Cloudy  
   Wind: NNW 4.6 mph
Wind: NNW 4.6 mph
Temperature: 80.6°F
Dew Point: 53.6°F
Humidity: 39%
Barometer: 29.95 inHg
Clouds: Mostly Cloudy
Visibility: 5 mi
Cloud details: Mostly Cloudy 3800 ft
KMRY 012154Z 34004KT 5SM HZ BKN038 27/12 A2995 RMK AO2 SLPNO T02720122 $
KWYS - West Yellowstone, MT
Updated: Oct 1 2020 3:35 pm
Clear  
Clear  
   Wind: SSW 16.1 mph<br />Gust to 16.1 mph
Wind: SSW 16.1 mph
Gust to 16.1 mph
Temperature: 69.8°F
Dew Point: 23°F
Humidity: 17%
Barometer: 30.35 inHg
Clouds: Clear
Visibility: 10 mi
Cloud details: Clear ft
KWYS 012235Z AUTO 20014G19KT 10SM CLR 21/M05 A3035 RMK AO2
KDCA - Washington, DC
Updated: Oct 1 2020 2:52 pm
Overcast  
Overcast  
   Wind: NNW 9.2 mph
Wind: NNW 9.2 mph
Temperature: 69.8°F
Dew Point: 53.6°F
Humidity: 57%
Barometer: 29.94 inHg
Clouds: Overcast
Visibility: 10 mi
Cloud details: Mostly Cloudy 4900 ft,
Overcast 6500 ft
KDCA 012152Z 33008KT 10SM BKN049 OVC065 21/12 A2994 RMK AO2 SLP137 T02060117
KIAD - Washington Dulles, VA
Updated: Oct 1 2020 2:52 pm
Mostly Cloudy  
Mostly Cloudy  
   Wind: NNW 11.5 mph
Wind: NNW 11.5 mph
Temperature: 66.2°F
Dew Point: 50°F
Humidity: 56%
Barometer: 29.93 inHg
Clouds: Mostly Cloudy
Visibility: 10 mi
Cloud details: Few Clouds 4500 ft,
Mostly Cloudy 6500 ft,
Mostly Cloudy 8500 ft
KIAD 012152Z 34010KT 10SM FEW045 BKN065 BKN085 19/10 A2993 RMK AO2 RAE20 SLP135 VCSH P0000 T01890100
KMIA - Miami Beach, FL
Updated: Oct 1 2020 3:27 pm
Thunderstorm, Overcast  
Thunderstorm, Overcast  
   Wind: NNW 6.9 mph<br />Gust to 6.9 mph
Wind: NNW 6.9 mph
Gust to 6.9 mph
Temperature: 78.8°F
Dew Point: 73.4°F
Humidity: 84%
Barometer: 29.91 inHg
Clouds: Overcast
Visibility: 10 mi
Cloud details: Few Clouds 1500 ft,
Partly Cloudy 2500 ft,
Mostly Cloudy 4000 ft,
Overcast 18000 ft
KMIA 012227Z 33006G14KT 10SM TS FEW015 SCT025CB BKN040 OVC180 26/23 A2991 RMK AO2 LTG DSNT S AND W TSB25 OCNL LTGICCG SW-NW TS SW-NW MOV NE CB DSNT SE-S T02610233

Script developed by  Saratoga-weather.org Adapted for the template by  Weerstation Leuven

You find our weather info also at:

Weather Underground

Citizen Weather Observer Program (CWOP)

Equipment we use:

Weather-station
Ambient WS-1400-IP

Weather-program
Meteobridge

Weather-server
TP-LINK TL-MR3020

Ambient WS-1400-IP

Meteobridge

TP-LINK TL-MR3020